Terminal Aerodrome Forecast
Issued by NWS Quad Cities IA IL

Home | Current Version | Previous Version | Text Only | Print | Product List | Glossary On
Versions: 1 2 3 4 5 6 7 8 9 10 11 12 13 14 15 16 17 18 19 20 21 22 23 24 25 26 27
927
FTUS43 KDVN 201508 AAA
TAFMLI
TAF AMD
KMLI 201508Z 2015/2112 VRB05KT P6SM SCT120
      TEMPO 2015/2017 P6SM -SHRA BKN090
     FM201700 15007KT P6SM SCT040 BKN250
     FM210000 15006KT P6SM BKN080=

USA.gov is the U.S. government's official web portal to all federal, state and local government web resources and services.